SCRN weather

Río Negro Airport
Río Negro, Los Lagos Region, Chile

Public forecast

Using degrees Celsius for public forecast. Weather courtesy of forecast.io.

Closest aviation weather report (METAR) to Río Negro Airport

Closest report is El Tepual Airport, 42.6 nm (78.8 km) NW. Retrieved 2019/10/21 13:00 UTC (36 minutes ago):

SCTE 211300Z 21006KT 180V240 9999 SCT048 BKN056 09/06 Q1028 NOSIG

Closest aviation forecast (TAF) to Río Negro Airport

Closest forecast is El Tepual Airport, 42.6 nm (78.8 km) NW. Retrieved 2019/10/21 12:00 UTC (2 hours ago):

TAF SCTE 211000Z 2112/2212 VRB03KT 9999 SCT045 TN04/2112Z TX12/2118Z BECMG 2114/2116 16008KT BKN035 TEMPO 2117/2120 19013KT SCT035 BECMG 2121/2123 20008KT BECMG 2204/2206 BKN020 TEMPO 2207/2212 VRB03KT 3000 BKN005